Time;durP1;ratioP1;P1;durP2;ratioP2;P2;SDS_P1;SDS_P2;PMS_P1;PMS_P2;Temp;Humidity;BMP_temperature;BMP_pressure;BME280_temperature;BME280_humidity;BME280_pressure;Samples;Min_cycle;Max_cycle;Signal;HPM_P1;HPM_P2
2023/08/26 00:01:15;;;;;;;7.68;2.10;;;17.40;99.90;;;;;;5072703;28;20527;-79
2023/08/26 00:03:46;;;;;;;4.20;1.90;;;17.50;99.90;;;;;;5072354;28;20201;-81
2023/08/26 00:06:17;;;;;;;5.30;2.03;;;17.50;99.90;;;;;;5072536;28;20203;-80
2023/08/26 00:08:48;;;;;;;5.13;2.08;;;17.70;99.90;;;;;;5072838;28;20185;-79
2023/08/26 00:11:20;;;;;;;4.88;1.80;;;17.80;99.90;;;;;;5072544;28;20259;-79
2023/08/26 00:13:51;;;;;;;4.55;1.80;;;17.90;99.90;;;;;;5072837;28;20204;-80
2023/08/26 00:16:23;;;;;;;3.85;1.70;;;18.10;99.90;;;;;;5072636;28;20185;-80
2023/08/26 00:18:54;;;;;;;5.40;1.90;;;18.20;99.90;;;;;;5072373;28;20224;-77
2023/08/26 00:21:25;;;;;;;5.57;1.73;;;18.30;99.90;;;;;;5072607;28;20201;-75
2023/08/26 00:23:55;;;;;;;3.83;1.30;;;18.50;99.90;;;;;;5072509;28;20189;-77
2023/08/26 00:26:28;;;;;;;5.57;1.20;;;18.70;99.90;;;;;;5072372;28;20189;-74
2023/08/26 00:28:59;;;;;;;3.08;1.33;;;18.80;99.90;;;;;;5072589;28;20280;-76
2023/08/26 00:31:30;;;;;;;4.40;1.40;;;19.00;99.90;;;;;;5072374;28;20193;-74
2023/08/26 00:34:03;;;;;;;4.53;1.40;;;19.00;99.90;;;;;;5072677;28;20196;-75
2023/08/26 00:36:34;;;;;;;3.92;1.10;;;19.00;99.90;;;;;;5092351;28;20198;-75
2023/08/26 00:39:05;;;;;;;3.58;1.40;;;18.80;99.90;;;;;;5096443;28;20195;-74
2023/08/26 00:41:37;;;;;;;4.18;1.60;;;18.60;99.90;;;;;;5096278;28;20193;-75
2023/08/26 00:44:08;;;;;;;4.15;1.95;;;18.50;99.90;;;;;;5096140;28;20196;-77
2023/08/26 00:46:39;;;;;;;5.35;1.45;;;18.40;99.90;;;;;;5096036;28;20192;-73
2023/08/26 00:49:10;;;;;;;2.50;1.30;;;18.30;99.90;;;;;;5096101;28;20199;-77
2023/08/26 00:51:41;;;;;;;3.63;1.20;;;18.40;99.90;;;;;;5096143;28;20215;-77
2023/08/26 00:54:12;;;;;;;6.47;1.30;;;18.50;99.90;;;;;;5096048;28;20189;-76
2023/08/26 00:56:45;;;;;;;3.67;1.10;;;18.60;99.90;;;;;;5094831;28;20202;-77
2023/08/26 00:59:15;;;;;;;3.72;1.50;;;18.70;99.90;;;;;;5090835;28;20204;-73
2023/08/26 01:01:46;;;;;;;5.57;1.30;;;18.90;99.90;;;;;;5095687;28;20195;-76
2023/08/26 01:04:18;;;;;;;4.88;1.17;;;18.90;99.90;;;;;;5095437;28;20640;-75
2023/08/26 01:06:48;;;;;;;4.57;1.50;;;19.10;99.90;;;;;;5095615;28;20261;-78
2023/08/26 01:09:19;;;;;;;6.65;1.73;;;19.20;99.90;;;;;;5095468;28;20192;-77
2023/08/26 01:12:00;;;;;;;2.47;0.90;;;19.40;99.90;;;;;;5095349;28;20262;-79
2023/08/26 01:14:36;;;;;;;2.72;0.90;;;19.30;99.90;;;;;;5094774;28;20254;-75
2023/08/26 01:17:08;;;;;;;3.45;1.50;;;19.60;99.90;;;;;;5095576;28;20195;-75
2023/08/26 01:19:42;;;;;;;4.75;1.17;;;19.60;99.90;;;;;;5095479;28;20224;-72
2023/08/26 01:22:13;;;;;;;2.67;1.10;;;19.50;99.90;;;;;;5095507;28;20194;-74
2023/08/26 01:24:46;;;;;;;2.78;1.10;;;19.60;99.90;;;;;;5095412;28;20194;-74
2023/08/26 01:27:16;;;;;;;4.50;1.17;;;19.70;99.90;;;;;;5095399;28;20233;-76
2023/08/26 01:29:47;;;;;;;2.88;0.98;;;19.90;99.90;;;;;;5095184;28;20216;-75
2023/08/26 01:32:24;;;;;;;3.63;0.95;;;19.80;99.90;;;;;;5095461;28;20188;-75
2023/08/26 01:34:59;;;;;;;3.67;1.02;;;20.00;99.90;;;;;;5095171;28;20560;-73
2023/08/26 01:37:31;;;;;;;3.92;0.93;;;19.90;99.90;;;;;;5095192;28;20199;-73
2023/08/26 01:40:09;;;;;;;2.63;0.90;;;19.50;99.90;;;;;;5095086;28;20196;-75
2023/08/26 01:42:42;;;;;;;4.60;1.08;;;19.30;99.90;;;;;;5095046;28;20195;-72
2023/08/26 01:45:13;;;;;;;3.88;1.50;;;19.60;99.90;;;;;;5094100;28;20188;-73
2023/08/26 01:47:44;;;;;;;2.35;1.00;;;19.80;99.90;;;;;;5095278;28;20189;-72
2023/08/26 01:50:14;;;;;;;3.20;0.88;;;19.90;99.90;;;;;;5094803;28;20208;-72
2023/08/26 01:52:45;;;;;;;3.00;1.10;;;20.10;99.90;;;;;;5094659;28;20644;-72
2023/08/26 01:55:18;;;;;;;4.28;1.33;;;20.30;99.90;;;;;;5094687;28;20211;-74
2023/08/26 01:57:48;;;;;;;5.05;1.30;;;20.30;99.90;;;;;;5094802;28;20632;-72
2023/08/26 02:00:20;;;;;;;2.83;1.10;;;20.50;99.90;;;;;;5094498;28;20197;-80
2023/08/26 02:02:50;;;;;;;2.45;1.02;;;20.60;99.90;;;;;;5094400;28;20636;-76
2023/08/26 02:05:21;;;;;;;2.90;1.00;;;20.80;99.90;;;;;;5094534;28;20195;-80
2023/08/26 02:07:52;;;;;;;3.30;1.20;;;20.80;99.90;;;;;;5094546;28;20190;-80
2023/08/26 02:10:24;;;;;;;5.60;1.08;;;20.50;99.90;;;;;;5093973;28;20216;-77
2023/08/26 02:12:55;;;;;;;2.78;0.93;;;20.70;99.90;;;;;;5089938;28;20228;-73
2023/08/26 02:15:26;;;;;;;2.38;1.10;;;20.80;99.90;;;;;;5087502;28;20188;-75
2023/08/26 02:17:57;;;;;;;2.67;1.20;;;20.80;99.90;;;;;;5083371;28;20737;-77
2023/08/26 02:20:28;;;;;;;3.28;1.10;;;20.70;99.90;;;;;;5091351;28;20200;-79
2023/08/26 02:22:58;;;;;;;5.47;1.30;;;20.80;99.90;;;;;;5089752;28;20196;-79
2023/08/26 02:25:32;;;;;;;4.80;1.20;;;20.90;99.90;;;;;;5077018;28;20192;-76
2023/08/26 02:28:03;;;;;;;4.45;1.20;;;21.00;99.90;;;;;;5079180;28;20203;-79
2023/08/26 02:30:33;;;;;;;4.13;1.15;;;20.80;99.90;;;;;;5091267;28;20595;-78
2023/08/26 02:33:06;;;;;;;4.70;1.20;;;20.40;99.90;;;;;;5094670;28;20219;-79
2023/08/26 02:35:38;;;;;;;4.95;1.15;;;20.30;99.90;;;;;;5093829;28;20188;-80
2023/08/26 02:38:08;;;;;;;1.90;0.90;;;19.80;99.90;;;;;;5092012;28;20189;-77
2023/08/26 02:40:41;;;;;;;4.20;1.50;;;19.50;99.90;;;;;;5091846;28;20188;-80
2023/08/26 02:43:12;;;;;;;2.28;1.00;;;19.40;99.90;;;;;;5081888;28;20192;-77
2023/08/26 02:45:42;;;;;;;2.42;0.85;;;19.20;99.90;;;;;;5073374;28;20193;-74
2023/08/26 02:48:13;;;;;;;4.10;1.10;;;19.00;99.90;;;;;;5073454;28;20629;-78
2023/08/26 02:50:44;;;;;;;3.25;1.02;;;19.10;99.90;;;;;;5076359;28;20706;-79
2023/08/26 02:53:15;;;;;;;4.18;1.00;;;19.40;99.90;;;;;;5092380;28;20199;-80
2023/08/26 02:55:49;;;;;;;3.88;1.00;;;19.70;99.90;;;;;;5093550;28;20185;-78
2023/08/26 02:58:20;;;;;;;4.72;0.93;;;19.80;99.90;;;;;;5090617;28;20202;-78
2023/08/26 03:00:52;;;;;;;3.63;0.95;;;19.50;99.90;;;;;;5089899;28;20196;-79
2023/08/26 03:03:23;;;;;;;4.20;1.02;;;19.50;99.90;;;;;;5081338;28;20229;-78
2023/08/26 03:05:58;;;;;;;2.95;1.00;;;19.50;99.90;;;;;;5073303;28;20215;-80
2023/08/26 03:08:29;;;;;;;2.47;1.10;;;19.70;99.90;;;;;;5073404;28;20192;-79
2023/08/26 03:11:03;;;;;;;2.78;1.00;;;19.80;99.90;;;;;;5089192;28;20251;-78
2023/08/26 03:13:34;;;;;;;2.97;0.90;;;20.00;99.90;;;;;;5082481;28;20197;-78
2023/08/26 03:16:10;;;;;;;2.75;1.05;;;20.20;99.90;;;;;;5074037;28;20664;-78
2023/08/26 03:18:41;;;;;;;5.47;1.02;;;20.30;99.90;;;;;;5073074;28;20707;-80
2023/08/26 03:21:12;;;;;;;3.88;1.20;;;20.00;99.90;;;;;;5077151;28;20195;-79
2023/08/26 03:23:43;;;;;;;2.10;0.90;;;19.70;99.90;;;;;;5073116;28;20743;-79
2023/08/26 03:26:16;;;;;;;3.50;1.08;;;19.60;99.90;;;;;;5081147;28;20192;-80
2023/08/26 03:28:47;;;;;;;3.30;1.10;;;19.50;99.90;;;;;;5092663;28;20199;-78
2023/08/26 03:31:17;;;;;;;4.32;0.90;;;19.20;99.90;;;;;;5081301;28;20665;-79
2023/08/26 03:33:48;;;;;;;2.95;1.10;;;19.10;99.90;;;;;;5073617;28;20197;-78
2023/08/26 03:36:19;;;;;;;4.35;1.40;;;19.00;99.90;;;;;;5074826;28;20680;-82
2023/08/26 03:38:50;;;;;;;4.05;1.00;;;19.00;99.90;;;;;;5072844;28;20641;-79
2023/08/26 03:41:22;;;;;;;3.70;1.17;;;19.00;99.90;;;;;;5082269;28;20200;-80
2023/08/26 03:43:53;;;;;;;3.83;1.20;;;19.00;99.90;;;;;;5093322;28;20661;-80
2023/08/26 03:46:24;;;;;;;2.17;1.00;;;18.90;99.90;;;;;;5085457;28;20199;-77
2023/08/26 03:48:54;;;;;;;3.63;1.20;;;18.90;99.90;;;;;;5091289;28;20685;-79
2023/08/26 03:51:25;;;;;;;3.22;1.20;;;19.00;99.90;;;;;;5079369;28;20227;-78
2023/08/26 03:53:56;;;;;;;4.25;1.20;;;19.10;99.90;;;;;;5076629;28;20187;-80
2023/08/26 03:56:28;;;;;;;3.08;1.17;;;19.00;99.90;;;;;;5080385;28;20217;-79
2023/08/26 03:58:59;;;;;;;1.83;0.88;;;18.90;99.90;;;;;;5074533;28;20193;-80
2023/08/26 04:01:31;;;;;;;3.22;0.90;;;18.90;99.90;;;;;;5072529;28;20189;-83
2023/08/26 04:04:02;;;;;;;2.78;0.80;;;19.00;99.90;;;;;;5072547;28;20611;-81
2023/08/26 04:06:33;;;;;;;4.47;0.80;;;19.20;99.90;;;;;;5082192;28;20573;-82
2023/08/26 04:09:04;;;;;;;2.65;0.98;;;19.30;99.90;;;;;;5093507;28;20271;-80
2023/08/26 04:11:37;;;;;;;3.33;1.40;;;19.40;99.90;;;;;;5096540;28;20250;-78
2023/08/26 04:14:07;;;;;;;5.25;1.00;;;19.50;99.90;;;;;;5081921;28;20583;-76
2023/08/26 04:16:38;;;;;;;4.15;1.08;;;19.50;99.90;;;;;;5076537;28;20191;-73
2023/08/26 04:19:09;;;;;;;3.88;1.00;;;19.50;99.90;;;;;;5076347;28;20227;-75
2023/08/26 04:21:40;;;;;;;2.83;0.75;;;19.50;99.90;;;;;;5076378;28;20564;-75
2023/08/26 04:24:11;;;;;;;4.72;1.00;;;19.40;99.90;;;;;;5093713;28;20188;-78
2023/08/26 04:26:43;;;;;;;2.67;0.90;;;19.30;99.90;;;;;;5083624;28;20212;-81
2023/08/26 04:29:14;;;;;;;4.57;1.20;;;19.20;99.90;;;;;;5076350;28;20191;-80
2023/08/26 04:31:45;;;;;;;2.58;1.20;;;19.20;99.90;;;;;;5079643;28;20216;-80
2023/08/26 04:34:16;;;;;;;3.00;1.13;;;19.20;99.90;;;;;;5076525;28;20197;-77
2023/08/26 04:36:46;;;;;;;2.15;0.70;;;19.30;99.90;;;;;;5094931;28;20200;-79
2023/08/26 04:39:19;;;;;;;3.63;0.98;;;19.30;99.90;;;;;;5079057;28;20226;-79
2023/08/26 04:41:52;;;;;;;5.85;1.30;;;19.20;99.90;;;;;;5074776;28;20189;-74
2023/08/26 04:44:23;;;;;;;4.53;1.30;;;19.20;99.90;;;;;;5073813;28;20633;-81
2023/08/26 04:46:54;;;;;;;3.97;1.17;;;19.20;99.90;;;;;;5089995;28;20210;-81
2023/08/26 04:49:24;;;;;;;4.70;0.90;;;19.20;99.90;;;;;;5089568;28;20332;-83
2023/08/26 04:51:56;;;;;;;3.72;1.00;;;19.20;99.90;;;;;;5092426;28;20212;-76
2023/08/26 04:54:26;;;;;;;2.22;0.90;;;19.20;99.90;;;;;;5094302;28;20200;-78
2023/08/26 04:56:59;;;;;;;4.00;1.10;;;19.20;99.90;;;;;;5093683;28;20203;-80
2023/08/26 04:59:30;;;;;;;3.05;1.00;;;19.10;99.90;;;;;;5084752;28;20200;-80
2023/08/26 05:02:01;;;;;;;3.78;1.27;;;19.10;99.90;;;;;;5075394;28;20686;-78
2023/08/26 05:04:31;;;;;;;3.35;1.00;;;19.00;99.90;;;;;;5094475;28;20318;-79
2023/08/26 05:07:03;;;;;;;3.30;1.05;;;19.00;99.90;;;;;;5095693;28;20192;-80
2023/08/26 05:09:33;;;;;;;4.20;1.10;;;19.00;99.90;;;;;;5094518;28;20644;-80
2023/08/26 05:12:07;;;;;;;3.65;0.88;;;19.00;99.90;;;;;;5095471;28;20715;-80
2023/08/26 05:14:37;;;;;;;3.13;1.00;;;18.90;99.90;;;;;;5095706;28;20192;-80
2023/08/26 05:17:08;;;;;;;1.77;0.70;;;18.90;99.90;;;;;;5095750;28;20191;-79
2023/08/26 05:19:39;;;;;;;2.45;0.90;;;18.90;99.90;;;;;;5095182;28;20195;-79
2023/08/26 05:22:10;;;;;;;1.92;0.88;;;19.00;99.90;;;;;;5095459;28;20192;-80
2023/08/26 05:24:40;;;;;;;2.30;0.90;;;19.10;99.90;;;;;;5095406;28;20200;-81
2023/08/26 05:27:13;;;;;;;4.30;0.88;;;19.00;99.90;;;;;;5095302;28;20203;-80
2023/08/26 05:29:44;;;;;;;2.65;0.90;;;18.90;99.90;;;;;;5095291;28;20662;-79
2023/08/26 05:32:14;;;;;;;4.07;0.90;;;18.90;99.90;;;;;;5095396;28;20222;-80
2023/08/26 05:34:45;;;;;;;2.97;1.10;;;18.90;99.90;;;;;;5095351;28;20194;-84
2023/08/26 05:37:16;;;;;;;3.80;0.90;;;18.90;99.90;;;;;;5095231;28;20188;-80
2023/08/26 05:39:47;;;;;;;3.65;0.90;;;18.80;99.90;;;;;;5095256;28;20223;-79
2023/08/26 05:42:19;;;;;;;2.60;0.80;;;18.80;99.90;;;;;;5095665;28;20197;-76
2023/08/26 05:44:50;;;;;;;2.83;0.85;;;18.70;99.90;;;;;;5095473;28;20530;-78
2023/08/26 05:47:21;;;;;;;2.78;0.82;;;18.70;99.90;;;;;;5095126;28;20188;-74
2023/08/26 05:49:52;;;;;;;3.38;0.90;;;18.80;99.90;;;;;;5095011;28;20199;-75
2023/08/26 05:52:22;;;;;;;3.58;1.05;;;18.70;99.90;;;;;;5094675;28;20553;-73
2023/08/26 05:54:53;;;;;;;2.70;0.88;;;18.70;99.90;;;;;;5094900;28;20195;-78
2023/08/26 05:57:26;;;;;;;2.67;0.98;;;18.60;99.90;;;;;;5094815;28;20195;-78
2023/08/26 05:59:56;;;;;;;1.80;0.68;;;18.60;99.90;;;;;;5095413;28;20195;-78
2023/08/26 06:02:27;;;;;;;4.43;0.80;;;18.60;99.90;;;;;;5094664;28;20188;-76
2023/08/26 06:04:58;;;;;;;4.25;1.00;;;18.60;99.90;;;;;;5094189;28;20192;-76
2023/08/26 06:07:29;;;;;;;2.10;0.85;;;18.60;99.90;;;;;;5094699;28;20269;-78
2023/08/26 06:10:00;;;;;;;5.20;1.08;;;18.60;99.90;;;;;;5094413;28;20196;-75
2023/08/26 06:12:32;;;;;;;5.35;1.35;;;18.60;99.90;;;;;;5094212;28;20247;-79
2023/08/26 06:15:03;;;;;;;3.35;0.98;;;18.60;99.90;;;;;;5094208;28;20667;-73
2023/08/26 06:17:34;;;;;;;2.55;0.95;;;18.60;99.90;;;;;;5094294;28;20636;-77
2023/08/26 06:20:05;;;;;;;4.60;0.90;;;18.50;99.90;;;;;;5094067;28;20199;-74
2023/08/26 06:22:36;;;;;;;3.70;1.02;;;18.50;99.90;;;;;;5094122;28;20220;-74
2023/08/26 06:25:07;;;;;;;2.53;1.08;;;18.50;99.90;;;;;;5094561;28;20663;-75
2023/08/26 06:27:40;;;;;;;2.33;1.05;;;18.50;99.90;;;;;;5094287;28;20192;-79
2023/08/26 06:30:12;;;;;;;2.78;1.10;;;18.40;99.90;;;;;;5094213;28;20214;-79
2023/08/26 06:32:42;;;;;;;2.80;1.10;;;18.40;99.90;;;;;;5093041;28;20588;-78
2023/08/26 06:35:13;;;;;;;2.88;1.00;;;18.30;99.90;;;;;;5093823;28;20571;-74
2023/08/26 06:37:44;;;;;;;2.45;1.20;;;18.30;99.90;;;;;;5094116;28;20184;-78
2023/08/26 06:40:13;;;;;;;2.08;0.95;;;18.30;99.90;;;;;;5094035;28;20592;-77
2023/08/26 06:42:46;;;;;;;2.40;0.93;;;18.30;99.90;;;;;;5094013;28;20243;-78
2023/08/26 06:45:17;;;;;;;2.72;0.90;;;18.30;99.90;;;;;;5093870;28;20193;-78
2023/08/26 06:47:47;;;;;;;4.07;1.15;;;18.20;99.90;;;;;;5094873;28;20655;-77
2023/08/26 06:50:18;;;;;;;2.25;0.90;;;18.10;99.90;;;;;;5093776;28;20189;-76
2023/08/26 06:52:49;;;;;;;2.75;1.00;;;18.00;99.90;;;;;;5093731;28;20557;-77
2023/08/26 06:55:20;;;;;;;2.90;1.00;;;18.00;99.90;;;;;;5093838;28;20185;-78
2023/08/26 06:57:53;;;;;;;6.70;1.10;;;17.90;99.90;;;;;;5093858;28;20185;-74
2023/08/26 07:00:24;;;;;;;3.83;1.00;;;17.90;99.90;;;;;;5093701;28;20222;-78
2023/08/26 07:02:55;;;;;;;2.65;0.82;;;17.80;99.90;;;;;;5092329;28;20559;-79
2023/08/26 07:05:25;;;;;;;4.15;0.85;;;17.80;99.90;;;;;;5074065;28;20686;-79
2023/08/26 07:07:56;;;;;;;3.88;1.20;;;17.80;99.90;;;;;;5073268;28;20189;-80
2023/08/26 07:10:27;;;;;;;2.30;1.20;;;17.70;99.90;;;;;;5073446;28;20192;-77
2023/08/26 07:12:59;;;;;;;2.83;1.50;;;17.70;99.90;;;;;;5073158;28;20243;-78
2023/08/26 07:15:30;;;;;;;1.88;1.05;;;17.70;99.90;;;;;;5073734;28;20648;-78
2023/08/26 07:18:01;;;;;;;2.28;1.17;;;17.60;99.90;;;;;;5073253;28;20246;-79
2023/08/26 07:20:32;;;;;;;6.10;1.38;;;17.60;99.90;;;;;;5073595;28;20226;-77
2023/08/26 07:23:03;;;;;;;4.13;1.10;;;17.40;99.90;;;;;;5072899;28;20189;-78
2023/08/26 07:25:34;;;;;;;1.50;0.88;;;17.40;99.90;;;;;;5072910;28;20641;-74
2023/08/26 07:28:09;;;;;;;1.98;1.15;;;17.30;99.90;;;;;;5072584;28;20213;-77
2023/08/26 07:30:42;;;;;;;1.83;1.10;;;17.30;99.90;;;;;;5082228;28;20195;-76
2023/08/26 07:33:13;;;;;;;2.95;1.05;;;17.20;99.90;;;;;;5078602;28;20565;-75
2023/08/26 07:35:43;;;;;;;2.08;1.23;;;17.10;99.90;;;;;;5088738;28;20197;-76
2023/08/26 07:38:14;;;;;;;2.38;1.30;;;17.10;99.90;;;;;;5073500;28;20196;-78
2023/08/26 07:40:45;;;;;;;3.55;1.10;;;17.00;99.90;;;;;;5076602;28;20239;-77
2023/08/26 07:43:17;;;;;;;2.45;1.23;;;17.00;99.90;;;;;;5084420;28;20200;-78
2023/08/26 07:45:48;;;;;;;2.28;1.10;;;16.90;99.90;;;;;;5085386;28;20203;-76
2023/08/26 07:48:19;;;;;;;3.72;1.30;;;16.90;99.90;;;;;;5087995;28;20185;-76
2023/08/26 07:50:53;;;;;;;2.95;1.27;;;16.90;99.90;;;;;;5080213;28;20184;-73
2023/08/26 07:53:23;;;;;;;2.90;1.30;;;16.80;99.90;;;;;;5078305;28;20213;-74
2023/08/26 07:55:56;;;;;;;1.67;1.02;;;16.80;99.90;;;;;;5076928;28;20550;-75
2023/08/26 07:58:29;;;;;;;3.78;1.10;;;16.70;99.90;;;;;;5087507;28;20200;-77
2023/08/26 08:00:59;;;;;;;1.77;1.10;;;16.70;99.90;;;;;;5083319;28;20188;-74
2023/08/26 08:03:30;;;;;;;2.53;1.10;;;16.60;99.90;;;;;;5081929;28;20196;-77
2023/08/26 08:06:01;;;;;;;3.40;1.20;;;16.60;99.90;;;;;;5090586;28;20203;-77
2023/08/26 08:08:32;;;;;;;3.55;1.35;;;16.60;99.90;;;;;;5086444;28;20199;-75
2023/08/26 08:11:03;;;;;;;3.95;1.38;;;16.50;99.90;;;;;;5075325;28;20197;-77
2023/08/26 08:13:36;;;;;;;2.45;1.40;;;16.50;99.90;;;;;;5076188;28;20231;-76
2023/08/26 08:16:08;;;;;;;3.78;1.40;;;16.40;99.90;;;;;;5081904;28;20203;-78
2023/08/26 08:18:39;;;;;;;4.25;1.42;;;16.40;99.90;;;;;;5081174;28;20197;-77
2023/08/26 08:21:10;;;;;;;3.75;1.58;;;16.30;99.90;;;;;;5081773;28;20201;-77
2023/08/26 08:23:43;;;;;;;2.10;1.33;;;16.30;99.90;;;;;;5077816;28;20536;-74
2023/08/26 08:26:16;;;;;;;3.28;1.60;;;16.20;99.90;;;;;;5075987;28;20201;-74
2023/08/26 08:28:48;;;;;;;2.50;1.42;;;16.20;99.90;;;;;;5085643;28;20189;-78
2023/08/26 08:31:19;;;;;;;3.08;1.60;;;16.10;99.90;;;;;;5081395;28;20201;-77
2023/08/26 08:33:50;;;;;;;4.05;1.88;;;16.10;99.90;;;;;;5084833;28;20208;-78
2023/08/26 08:36:20;;;;;;;4.13;1.50;;;16.10;99.90;;;;;;5084436;28;20283;-79
2023/08/26 08:38:51;;;;;;;5.35;2.05;;;16.00;99.90;;;;;;5081573;28;20220;-73
2023/08/26 08:41:22;;;;;;;5.10;1.98;;;16.00;99.90;;;;;;5076017;28;20201;-75
2023/08/26 08:44:01;;;;;;;3.53;1.80;;;15.90;99.90;;;;;;5075919;28;20201;-77
2023/08/26 08:46:32;;;;;;;2.63;1.92;;;15.90;99.90;;;;;;5075276;28;20254;-73
2023/08/26 08:49:03;;;;;;;3.30;1.85;;;15.80;99.90;;;;;;5075434;28;20200;-77
2023/08/26 08:51:35;;;;;;;3.05;2.08;;;15.80;99.90;;;;;;5083147;28;20193;-73
2023/08/26 08:54:07;;;;;;;4.80;2.20;;;15.80;99.90;;;;;;5085577;28;20247;-74
2023/08/26 08:56:38;;;;;;;3.90;2.20;;;15.80;99.90;;;;;;5074021;28;20668;-73
2023/08/26 08:59:12;;;;;;;5.28;2.30;;;15.80;99.90;;;;;;5075809;28;20208;-75
2023/08/26 09:01:43;;;;;;;4.20;2.30;;;15.70;99.90;;;;;;5083990;28;20200;-76
2023/08/26 09:04:14;;;;;;;4.55;2.38;;;15.70;99.90;;;;;;5080275;28;20219;-75
2023/08/26 09:06:45;;;;;;;5.30;2.17;;;15.70;99.90;;;;;;5076774;28;20203;-73
2023/08/26 09:09:18;;;;;;;5.82;2.38;;;15.60;99.90;;;;;;5087107;28;20196;-75
2023/08/26 09:11:49;;;;;;;5.70;2.67;;;15.60;99.90;;;;;;5078733;28;20354;-74
2023/08/26 09:14:22;;;;;;;5.03;2.53;;;15.50;99.90;;;;;;5076880;28;20633;-72
2023/08/26 09:16:53;;;;;;;5.00;2.70;;;15.50;99.90;;;;;;5082137;28;20192;-72
2023/08/26 09:19:24;;;;;;;4.90;2.88;;;15.50;99.90;;;;;;5085352;28;20200;-72
2023/08/26 09:21:55;;;;;;;8.70;3.10;;;15.40;99.90;;;;;;5079022;28;20266;-79
2023/08/26 09:24:26;;;;;;;4.32;2.85;;;15.40;99.90;;;;;;5086696;28;20201;-78
2023/08/26 09:27:01;;;;;;;4.78;3.15;;;15.40;99.90;;;;;;5074356;28;20197;-78
2023/08/26 09:29:35;;;;;;;5.50;2.97;;;15.40;99.90;;;;;;5081677;28;20195;-78
2023/08/26 09:32:06;;;;;;;6.65;3.08;;;15.40;99.90;;;;;;5080046;28;20283;-77
2023/08/26 09:34:37;;;;;;;6.68;3.13;;;15.40;99.90;;;;;;5088387;28;20606;-77
2023/08/26 09:37:10;;;;;;;5.90;3.10;;;15.30;99.90;;;;;;5080795;28;20645;-77
2023/08/26 09:39:49;;;;;;;5.88;3.33;;;15.30;99.90;;;;;;5085286;28;20269;-78
2023/08/26 09:42:21;;;;;;;5.82;3.05;;;15.30;99.90;;;;;;5086948;28;20251;-79
2023/08/26 09:44:57;;;;;;;6.78;3.78;;;15.20;99.90;;;;;;5081574;28;20607;-78
2023/08/26 09:47:31;;;;;;;7.53;3.38;;;15.20;99.90;;;;;;5077321;28;20196;-79
2023/08/26 09:50:02;;;;;;;4.97;3.30;;;15.20;99.90;;;;;;5083068;28;20192;-76
2023/08/26 09:52:42;;;;;;;8.10;3.50;;;15.20;99.90;;;;;;5075603;28;20221;-79
2023/08/26 09:55:14;;;;;;;6.45;3.75;;;15.10;99.90;;;;;;5074834;28;20216;-79
2023/08/26 09:57:45;;;;;;;6.07;3.80;;;15.10;99.90;;;;;;5080251;28;20192;-79
2023/08/26 10:00:18;;;;;;;6.10;3.75;;;15.10;99.90;;;;;;5077815;28;20269;-78
2023/08/26 10:02:51;;;;;;;8.15;3.92;;;15.10;99.90;;;;;;5074476;28;20237;-77
2023/08/26 10:05:23;;;;;;;7.20;4.07;;;15.10;99.90;;;;;;5082674;28;20649;-78
2023/08/26 10:07:54;;;;;;;8.23;4.03;;;15.00;99.90;;;;;;5074107;28;20201;-79
2023/08/26 10:10:35;;;;;;;7.15;4.30;;;15.00;99.90;;;;;;5076307;28;20203;-79
2023/08/26 10:13:07;;;;;;;8.38;4.55;;;15.00;99.90;;;;;;5093087;28;20585;-80
2023/08/26 10:15:43;;;;;;;6.93;5.00;;;15.00;99.90;;;;;;5085272;28;20208;-79
2023/08/26 10:18:20;;;;;;;9.27;5.68;;;14.90;99.90;;;;;;5076527;28;20192;-78
2023/08/26 10:20:52;;;;;;;10.88;6.53;;;14.90;99.90;;;;;;5086302;28;20196;-79
2023/08/26 10:23:23;;;;;;;13.35;7.65;;;14.90;99.90;;;;;;5074892;28;20569;-79
2023/08/26 10:25:54;;;;;;;11.40;7.13;;;14.80;99.90;;;;;;5073126;28;20193;-73
2023/08/26 10:28:26;;;;;;;10.00;6.85;;;14.80;99.90;;;;;;5091105;28;20204;-79
2023/08/26 10:31:00;;;;;;;11.00;6.38;;;14.80;99.90;;;;;;5091945;28;20219;-79
2023/08/26 10:33:31;;;;;;;13.20;6.80;;;14.80;99.90;;;;;;5085306;28;20217;-79
2023/08/26 10:36:13;;;;;;;10.93;6.43;;;14.80;99.90;;;;;;5077818;28;20192;-77
2023/08/26 10:38:58;;;;;;;11.65;6.75;;;14.70;99.90;;;;;;5077801;28;20219;-78
2023/08/26 10:41:29;;;;;;;10.85;6.40;;;14.70;99.90;;;;;;5073206;28;20721;-78
2023/08/26 10:44:01;;;;;;;10.63;6.43;;;14.70;99.90;;;;;;5079397;28;20193;-79
2023/08/26 10:46:39;;;;;;;10.30;6.30;;;14.70;99.90;;;;;;5088505;28;20189;-80
2023/08/26 10:49:14;;;;;;;11.30;6.20;;;14.70;99.90;;;;;;5082622;28;20196;-81
2023/08/26 10:51:48;;;;;;;9.90;6.00;;;14.60;99.90;;;;;;5081637;28;20196;-78
2023/08/26 10:54:32;;;;;;;10.43;6.05;;;14.60;99.90;;;;;;5081991;28;20254;-77
2023/08/26 10:57:07;;;;;;;10.52;5.80;;;14.70;99.90;;;;;;5078007;28;20276;-79
2023/08/26 10:59:39;;;;;;;9.82;6.13;;;14.60;99.90;;;;;;5073273;28;20196;-76
2023/08/26 11:02:13;;;;;;;9.13;5.50;;;14.60;99.90;;;;;;5083097;28;20230;-80
2023/08/26 11:04:47;;;;;;;10.80;6.10;;;14.50;99.90;;;;;;5083876;28;20245;-76
2023/08/26 11:07:19;;;;;;;8.40;5.85;;;14.50;99.90;;;;;;5085933;28;20569;-79
2023/08/26 11:09:50;;;;;;;11.60;5.57;;;14.50;99.90;;;;;;5090648;28;20192;-77
2023/08/26 11:12:30;;;;;;;8.18;4.95;;;14.50;99.90;;;;;;5080418;28;20228;-79
2023/08/26 11:15:07;;;;;;;9.90;5.57;;;14.50;99.90;;;;;;5076975;28;20197;-76
2023/08/26 11:17:40;;;;;;;9.30;5.80;;;14.50;99.90;;;;;;5082830;28;20203;-78
2023/08/26 11:20:12;;;;;;;9.13;5.55;;;14.50;99.90;;;;;;5074563;28;20563;-74
2023/08/26 11:22:43;;;;;;;12.70;5.78;;;14.40;99.90;;;;;;5072964;28;20197;-79
2023/08/26 11:25:16;;;;;;;11.27;5.55;;;14.40;99.90;;;;;;5076796;28;20196;-78
2023/08/26 11:27:47;;;;;;;11.23;6.63;;;14.40;99.90;;;;;;5084281;28;20207;-79
2023/08/26 11:30:18;;;;;;;12.85;6.80;;;14.40;99.90;;;;;;5084985;28;20605;-72
2023/08/26 11:32:52;;;;;;;11.45;6.97;;;14.30;99.90;;;;;;5073914;28;20200;-72
2023/08/26 11:35:25;;;;;;;12.27;7.43;;;14.30;99.90;;;;;;5077597;28;20207;-73
2023/08/26 11:37:56;;;;;;;11.32;7.50;;;14.30;99.90;;;;;;5072496;28;20193;-72
2023/08/26 11:40:27;;;;;;;12.55;7.70;;;14.30;99.90;;;;;;5076499;28;20314;-71
2023/08/26 11:42:58;;;;;;;12.60;7.20;;;14.30;99.90;;;;;;5075507;28;20204;-71
2023/08/26 11:45:29;;;;;;;13.73;8.05;;;14.30;99.90;;;;;;5078518;28;20208;-72
2023/08/26 11:48:02;;;;;;;13.10;8.00;;;14.20;99.90;;;;;;5072703;28;20201;-76
2023/08/26 11:50:33;;;;;;;13.15;7.68;;;14.20;99.90;;;;;;5077457;28;20197;-75
2023/08/26 11:53:08;;;;;;;13.57;7.78;;;14.10;99.90;;;;;;5076707;28;20853;-76
2023/08/26 11:55:39;;;;;;;13.13;7.90;;;14.20;99.90;;;;;;5089146;28;20678;-72
2023/08/26 11:58:12;;;;;;;14.30;8.07;;;14.20;99.90;;;;;;5071723;28;20197;-78
2023/08/26 12:00:45;;;;;;;12.10;8.30;;;14.20;99.90;;;;;;5080447;28;20246;-78
2023/08/26 12:03:18;;;;;;;14.18;7.93;;;14.20;99.90;;;;;;5081515;28;20212;-78
2023/08/26 12:05:52;;;;;;;14.32;8.30;;;14.10;99.90;;;;;;5076849;28;20663;-78
2023/08/26 12:08:24;;;;;;;11.07;8.48;;;14.10;99.90;;;;;;5086289;28;20196;-80
2023/08/26 12:10:55;;;;;;;16.58;9.70;;;14.10;99.90;;;;;;5092525;28;20201;-80
2023/08/26 12:13:38;;;;;;;18.08;11.43;;;14.10;99.90;;;;;;5090649;28;20216;-80
2023/08/26 12:16:09;;;;;;;15.63;9.50;;;14.00;99.90;;;;;;5090179;28;20634;-80
2023/08/26 12:18:43;;;;;;;14.25;8.90;;;14.00;99.90;;;;;;5089468;28;20239;-79
2023/08/26 12:21:15;;;;;;;14.32;8.93;;;13.90;99.90;;;;;;5072367;28;20703;-73
2023/08/26 12:23:46;;;;;;;15.63;8.98;;;13.80;99.90;;;;;;5074888;28;20223;-74
2023/08/26 12:26:17;;;;;;;15.02;9.45;;;13.80;99.90;;;;;;5085021;28;20386;-77
2023/08/26 12:28:49;;;;;;;14.43;10.02;;;13.70;99.90;;;;;;5071542;28;20633;-75
2023/08/26 12:31:20;;;;;;;18.42;11.27;;;13.70;99.90;;;;;;5077123;28;20214;-73
2023/08/26 12:33:52;;;;;;;24.95;14.38;;;13.70;99.90;;;;;;5082920;28;20593;-78
2023/08/26 12:36:23;;;;;;;24.17;15.20;;;13.70;99.90;;;;;;5082697;28;20203;-75
2023/08/26 12:38:54;;;;;;;28.00;17.67;;;13.60;99.90;;;;;;5089945;28;20208;-73
2023/08/26 12:41:25;;;;;;;30.90;17.38;;;13.60;99.90;;;;;;5093284;28;20285;-74
2023/08/26 12:43:56;;;;;;;25.05;16.63;;;13.60;99.90;;;;;;5083378;28;20200;-81
2023/08/26 12:46:27;;;;;;;25.08;16.30;;;13.60;99.90;;;;;;5096126;28;20185;-77
2023/08/26 12:49:00;;;;;;;23.80;14.63;;;13.60;99.90;;;;;;5091975;28;20707;-75
2023/08/26 12:51:30;;;;;;;25.75;14.25;;;13.60;99.90;;;;;;5075640;28;20185;-74
2023/08/26 12:54:01;;;;;;;19.35;13.50;;;13.50;99.90;;;;;;5082106;28;20212;-75
2023/08/26 12:56:32;;;;;;;21.67;13.15;;;13.50;99.90;;;;;;5095853;28;20191;-77
2023/08/26 12:59:03;;;;;;;20.20;12.93;;;13.50;99.90;;;;;;5095894;28;20658;-73
2023/08/26 13:01:34;;;;;;;20.75;14.38;;;13.50;99.90;;;;;;5082843;28;20201;-75
2023/08/26 13:04:07;;;;;;;24.95;17.17;;;13.50;99.90;;;;;;5077209;28;20189;-77
2023/08/26 13:06:38;;;;;;;26.60;16.80;;;13.50;99.90;;;;;;5086596;28;20193;-74
2023/08/26 13:09:09;;;;;;;21.13;15.05;;;13.40;99.90;;;;;;5075335;28;20259;-78